Time;durP1;ratioP1;P1;durP2;ratioP2;P2;SDS_P1;SDS_P2;PMS_P1;PMS_P2;Temp;Humidity;BMP_temperature;BMP_pressure;BME280_temperature;BME280_humidity;BME280_pressure;Samples;Min_cycle;Max_cycle;Signal;HPM_P1;HPM_P2
2023/05/02 00:00:24;;;;;;;;;;;;;;;-144.99;96.38;52256.50;5019246;28;20023;-72
2023/05/02 00:02:51;;;;;;;;;;;;;;;-144.99;97.81;52268.72;5012967;28;19995;-72
2023/05/02 00:05:19;;;;;;;;;;;;;;;-144.99;98.95;52268.72;5011672;28;19933;-73
2023/05/02 00:07:45;;;;;;;;;;;;;;;-144.99;100.00;52272.81;5033270;28;19933;-73
2023/05/02 00:10:12;;;;;;;;;;;;;;;-144.99;100.00;52230.00;5027245;28;19979;-69
2023/05/02 00:12:38;;;;;;;;;;;;;;;-144.99;100.00;52280.97;5027398;28;20018;-71
2023/05/02 00:15:05;;;;;;;;;;;;;;;-144.99;100.00;52268.72;5019435;28;19925;-71
2023/05/02 00:17:32;;;;;;;;;;;;;;;-144.99;100.00;52240.19;5018239;28;19980;-72
2023/05/02 00:19:59;;;;;;;;;;;;;;;-144.99;100.00;52260.56;5024321;28;20356;-70
2023/05/02 00:22:27;;;;;;;;;;;;;;;-144.99;100.00;52256.50;5034341;28;20110;-71
2023/05/02 00:24:56;;;;;;;;;;;;;;;-144.99;100.00;52219.81;5025536;28;19935;-74
2023/05/02 00:27:22;;;;;;;;;;;;;;;-144.99;100.00;52278.91;5027129;28;20419;-66
2023/05/02 00:29:48;;;;;;;;;;;;;;;-144.99;100.00;52260.56;5021964;28;19957;-66
2023/05/02 00:32:15;;;;;;;;;;;;;;;-144.99;100.00;52258.53;5024737;28;19967;-67
2023/05/02 00:34:41;;;;;;;;;;;;;;;-144.99;100.00;52242.22;5022140;28;19972;-68
2023/05/02 00:37:08;;;;;;;;;;;;;;;-144.99;100.00;52276.88;5023167;28;20358;-71
2023/05/02 00:39:36;;;;;;;;;;;;;;;-144.99;100.00;52252.44;5023532;28;19980;-69
2023/05/02 00:42:03;;;;;;;;;;;;;;;-144.99;100.00;52236.13;5033543;28;20416;-69
2023/05/02 00:44:29;;;;;;;;;;;;;;;-144.99;100.00;52289.13;5021198;28;19928;-70
2023/05/02 00:46:56;;;;;;;;;;;;;;;-144.99;100.00;52248.34;5020136;28;19988;-74
2023/05/02 00:49:23;;;;;;;;;;;;;;;-144.99;100.00;52264.66;5021270;28;19983;-73
2023/05/02 00:51:50;;;;;;;;;;;;;;;-144.99;100.00;52250.38;5019350;28;19983;-75
2023/05/02 00:54:17;;;;;;;;;;;;;;;-144.99;100.00;52280.97;5035587;28;19925;-73
2023/05/02 00:56:45;;;;;;;;;;;;;;;-144.99;100.00;52260.56;5025508;28;20275;-72
2023/05/02 00:59:12;;;;;;;;;;;;;;;-144.99;100.00;52236.13;5029230;28;19964;-72
2023/05/02 01:01:41;;;;;;;;;;;;;;;-144.99;100.00;52297.25;5042097;22;20437;-77
2023/05/02 01:04:13;;;;;;;;;;;;;;;-144.99;100.00;52291.16;5044363;28;20323;-77
2023/05/02 01:06:48;;;;;;;;;;;;;;;-144.99;100.00;52240.19;5046174;28;19931;-79
2023/05/02 01:09:22;;;;;;;;;;;;;;;-144.99;100.00;52268.72;5048180;28;20441;-75
2023/05/02 01:11:53;;;;;;;;;;;;;;;-144.99;100.00;52280.97;5038357;28;20012;-75
2023/05/02 01:14:21;;;;;;;;;;;;;;;-144.99;100.00;52276.88;5036413;28;20396;-74
2023/05/02 01:16:48;;;;;;;;;;;;;;;-144.99;100.00;52280.97;5033719;28;19964;-76
2023/05/02 01:19:20;;;;;;;;;;;;;;;-144.99;100.00;52268.72;5040788;28;19928;-76
2023/05/02 01:21:48;;;;;;;;;;;;;;;-144.99;100.00;52252.44;5032847;28;20019;-77
2023/05/02 01:24:20;;;;;;;;;;;;;;;-144.99;100.00;52236.13;5036153;28;19971;-76
2023/05/02 01:26:51;;;;;;;;;;;;;;;-144.99;100.00;52264.66;5035645;28;20331;-77
2023/05/02 01:29:20;;;;;;;;;;;;;;;-144.99;100.00;52252.44;5030306;28;19967;-76
2023/05/02 01:31:49;;;;;;;;;;;;;;;-144.99;100.00;52248.34;5030156;28;20427;-76
2023/05/02 01:34:17;;;;;;;;;;;;;;;-144.99;100.00;52276.88;5033630;28;19960;-77
2023/05/02 01:36:45;;;;;;;;;;;;;;;-144.99;100.00;52260.56;5031631;28;19929;-77
2023/05/02 01:39:14;;;;;;;;;;;;;;;-144.99;100.00;52252.44;5028910;28;19963;-77
2023/05/02 01:41:41;;;;;;;;;;;;;;;-144.99;100.00;52234.09;5033609;28;19963;-77
2023/05/02 01:44:09;;;;;;;;;;;;;;;-144.99;100.00;52260.56;5029180;28;20388;-75
2023/05/02 01:46:38;;;;;;;;;;;;;;;-144.99;100.00;52276.88;5041925;28;19968;-75
2023/05/02 01:49:06;;;;;;;;;;;;;;;-144.99;100.00;52236.13;5038558;28;19929;-74
2023/05/02 01:51:33;;;;;;;;;;;;;;;-144.99;100.00;52276.88;5029230;28;19929;-75
2023/05/02 01:54:01;;;;;;;;;;;;;;;-144.99;100.00;52280.97;5048041;28;19940;-75
2023/05/02 01:56:30;;;;;;;;;;;;;;;-144.99;100.00;52244.28;5034657;28;19975;-75
2023/05/02 01:58:57;;;;;;;;;;;;;;;-144.99;100.00;52232.03;5028704;28;19940;-76
2023/05/02 02:01:26;;;;;;;;;;;;;;;-144.99;100.00;52276.88;5033826;28;20398;-75
2023/05/02 02:03:56;;;;;;;;;;;;;;;-144.99;100.00;52252.44;5042143;28;19939;-76
2023/05/02 02:06:23;;;;;;;;;;;;;;;-144.99;100.00;52254.47;5030189;28;20049;-77
2023/05/02 02:08:50;;;;;;;;;;;;;;;-144.99;100.00;52276.88;5032402;28;20431;-74
2023/05/02 02:11:17;;;;;;;;;;;;;;;-144.99;100.00;52223.88;5029959;28;19987;-77
2023/05/02 02:13:48;;;;;;;;;;;;;;;-144.99;100.00;52252.44;5035041;28;19987;-76
2023/05/02 02:16:19;;;;;;;;;;;;;;;-144.99;100.00;52280.97;5035267;28;19925;-75
2023/05/02 02:18:45;;;;;;;;;;;;;;;-144.99;100.00;52240.19;5037514;28;19925;-75
2023/05/02 02:21:16;;;;;;;;;;;;;;;-144.99;99.91;52256.50;5033231;28;20252;-76
2023/05/02 02:23:44;;;;;;;;;;;;;;;-144.99;99.15;52285.03;5040514;28;20122;-75
2023/05/02 02:26:12;;;;;;;;;;;;;;;-144.99;100.00;52264.66;5035883;28;19925;-75
2023/05/02 02:28:39;;;;;;;;;;;;;;;-144.99;99.02;52291.16;5047042;28;19929;-75
2023/05/02 02:31:05;;;;;;;;;;;;;;;-144.99;98.77;52244.28;5044617;28;19932;-75
2023/05/02 02:33:32;;;;;;;;;;;;;;;-144.99;98.40;52272.81;5038773;28;19928;-76
2023/05/02 02:36:03;;;;;;;;;;;;;;;-144.99;97.45;52256.50;5033312;28;19979;-75
2023/05/02 02:38:33;;;;;;;;;;;;;;;-144.99;96.26;52276.88;5041461;28;19925;-74
2023/05/02 02:41:05;;;;;;;;;;;;;;;-144.99;95.68;52276.88;5033380;28;19986;-76
2023/05/02 02:43:36;;;;;;;;;;;;;;;-144.99;95.56;52276.88;5041918;28;19929;-77
2023/05/02 02:46:09;;;;;;;;;;;;;;;-144.99;95.27;52289.13;5034394;28;19968;-76
2023/05/02 02:48:37;;;;;;;;;;;;;;;-144.99;94.50;52297.25;5041476;28;19933;-77
2023/05/02 02:51:08;;;;;;;;;;;;;;;-144.99;94.57;52276.88;5034132;28;20536;-78
2023/05/02 02:53:44;;;;;;;;;;;;;;;-144.99;94.91;52293.19;5032566;28;19932;-79
2023/05/02 02:56:13;;;;;;;;;;;;;;;-144.99;94.88;52272.81;5041942;28;19972;-77
2023/05/02 02:58:47;;;;;;;;;;;;;;;-144.99;94.69;52303.38;5028335;28;20353;-78
2023/05/02 03:01:15;;;;;;;;;;;;;;;-144.99;94.31;52285.03;5031893;28;20368;-78
2023/05/02 03:03:43;;;;;;;;;;;;;;;-144.99;94.52;52293.19;5027916;28;19953;-77
2023/05/02 03:06:09;;;;;;;;;;;;;;;-144.99;94.81;52268.72;5038403;28;20038;-78
2023/05/02 03:08:41;;;;;;;;;;;;;;;-144.99;94.32;52287.06;5039683;28;19929;-78
2023/05/02 03:11:07;;;;;;;;;;;;;;;-144.99;94.11;52276.88;5041723;28;19940;-78
2023/05/02 03:13:34;;;;;;;;;;;;;;;-144.99;94.29;52248.34;5043032;28;20007;-77
2023/05/02 03:16:26;;;;;;;;;;;;;;;-144.99;93.73;52305.41;5035084;28;19935;-77
2023/05/02 03:18:52;;;;;;;;;;;;;;;-144.99;92.52;52289.13;5028059;28;20024;-78
2023/05/02 03:21:19;;;;;;;;;;;;;;;-144.99;91.26;52317.66;5029725;28;19960;-80
2023/05/02 03:23:47;;;;;;;;;;;;;;;-144.99;91.32;52252.44;5040818;28;19932;-80
2023/05/02 03:26:13;;;;;;;;;;;;;;;-144.99;90.46;52295.22;5035705;28;20015;-79
2023/05/02 03:28:40;;;;;;;;;;;;;;;-144.99;90.13;52289.13;5040571;28;19987;-83
2023/05/02 03:31:06;;;;;;;;;;;;;;;-144.99;91.23;52333.94;5027603;28;19933;-78
2023/05/02 03:33:33;;;;;;;;;;;;;;;-144.99;92.29;52293.19;5033291;28;20660;-77
2023/05/02 03:35:59;;;;;;;;;;;;;;;-144.99;91.55;52252.44;5032029;28;19968;-76
2023/05/02 03:38:26;;;;;;;;;;;;;;;-144.99;92.14;52305.41;5036158;28;19933;-78
2023/05/02 03:40:56;;;;;;;;;;;;;;;-144.99;89.97;52303.38;5044157;28;20292;-77
2023/05/02 03:43:24;;;;;;;;;;;;;;;-144.99;89.92;52297.25;5035228;28;20544;-76
2023/05/02 03:45:51;;;;;;;;;;;;;;;-144.99;89.86;52309.50;5033501;28;20008;-77
2023/05/02 03:48:17;;;;;;;;;;;;;;;-144.99;90.06;52254.47;5029973;28;19960;-75
2023/05/02 03:50:44;;;;;;;;;;;;;;;-144.99;87.71;52313.56;5027785;28;19956;-77
2023/05/02 03:53:10;;;;;;;;;;;;;;;-144.99;87.07;52321.72;5032851;28;20355;-76
2023/05/02 03:55:39;;;;;;;;;;;;;;;-144.99;86.60;52307.47;5046597;28;20368;-76
2023/05/02 03:58:07;;;;;;;;;;;;;;;-144.99;85.51;52256.50;5031062;28;20388;-74
2023/05/02 04:00:33;;;;;;;;;;;;;;;-144.99;85.42;52305.41;5039389;28;19932;-77
2023/05/02 04:03:00;;;;;;;;;;;;;;;-144.99;85.01;52285.03;5034650;28;19929;-79
2023/05/02 04:05:27;;;;;;;;;;;;;;;-144.99;85.30;52293.19;5029869;28;19929;-76
2023/05/02 04:07:54;;;;;;;;;;;;;;;-144.99;84.68;52293.19;5035985;28;19929;-75
2023/05/02 04:10:20;;;;;;;;;;;;;;;-144.99;84.18;52285.03;5041525;28;20307;-76
2023/05/02 04:12:46;;;;;;;;;;;;;;;-144.99;84.40;52309.50;5036974;28;20004;-76
2023/05/02 04:15:15;;;;;;;;;;;;;;;-144.99;84.64;52276.88;5040310;28;20423;-76
2023/05/02 04:17:41;;;;;;;;;;;;;;;-144.99;84.87;52293.19;5033769;28;19937;-76
2023/05/02 04:20:08;;;;;;;;;;;;;;;-144.99;84.91;52289.13;5037199;28;19933;-75
2023/05/02 04:22:35;;;;;;;;;;;;;;;-144.99;85.02;52285.03;5033405;28;19960;-77
2023/05/02 04:25:01;;;;;;;;;;;;;;;-144.99;85.72;52301.34;5030430;28;19932;-75
2023/05/02 04:27:28;;;;;;;;;;;;;;;-144.99;85.79;52301.34;5042188;28;19983;-75
2023/05/02 04:29:55;;;;;;;;;;;;;;;-144.99;85.35;52317.66;5035749;28;20341;-76
2023/05/02 04:32:23;;;;;;;;;;;;;;;-144.99;86.11;52299.31;5032451;28;19996;-75
2023/05/02 04:34:49;;;;;;;;;;;;;;;-144.99;85.35;52297.25;5031149;28;20275;-75
2023/05/02 04:37:16;;;;;;;;;;;;;;;-144.99;84.80;52313.56;5038440;28;19928;-73
2023/05/02 04:39:42;;;;;;;;;;;;;;;-144.99;84.71;52260.56;5029990;28;19929;-76
2023/05/02 04:42:09;;;;;;;;;;;;;;;-144.99;84.79;52303.38;5042867;28;20047;-75
2023/05/02 04:44:35;;;;;;;;;;;;;;;-144.99;85.06;52350.25;5029623;28;19968;-76
2023/05/02 04:47:03;;;;;;;;;;;;;;;-144.99;85.19;52276.88;5037628;28;19955;-75
2023/05/02 04:49:31;;;;;;;;;;;;;;;-144.99;85.48;52280.97;5047008;28;19955;-75
2023/05/02 04:51:58;;;;;;;;;;;;;;;-144.99;85.36;52309.50;5040035;28;19925;-76
2023/05/02 04:54:24;;;;;;;;;;;;;;;-144.99;85.96;52305.41;5045168;28;20004;-76
2023/05/02 04:56:50;;;;;;;;;;;;;;;-144.99;85.70;52283.00;5027381;28;19987;-76
2023/05/02 04:59:17;;;;;;;;;;;;;;;-144.99;85.58;52293.19;5029147;28;19949;-76
2023/05/02 05:01:44;;;;;;;;;;;;;;;-144.99;85.23;52305.41;5035789;28;20379;-76
2023/05/02 05:04:10;;;;;;;;;;;;;;;-144.99;84.89;52293.19;5031156;28;20253;-77
2023/05/02 05:06:38;;;;;;;;;;;;;;;-144.99;84.96;52305.41;5028032;28;19924;-75
2023/05/02 05:09:05;;;;;;;;;;;;;;;-144.99;84.72;52276.88;5033762;28;19986;-72
2023/05/02 05:11:31;;;;;;;;;;;;;;;-144.99;84.84;52297.25;5034555;28;19948;-76
2023/05/02 05:13:58;;;;;;;;;;;;;;;-144.99;84.86;52325.81;5034748;28;20047;-76
2023/05/02 05:16:24;;;;;;;;;;;;;;;-144.99;84.60;52283.00;5031700;28;20332;-75
2023/05/02 05:18:52;;;;;;;;;;;;;;;-144.99;84.58;52305.41;5033195;28;20363;-74
2023/05/02 05:21:19;;;;;;;;;;;;;;;-144.99;84.80;52289.13;5031828;28;20015;-75
2023/05/02 05:23:47;;;;;;;;;;;;;;;-144.99;84.71;52291.16;5036698;28;20083;-76
2023/05/02 05:26:14;;;;;;;;;;;;;;;-144.99;84.89;52301.34;5034222;28;20118;-77
2023/05/02 05:28:41;;;;;;;;;;;;;;;-144.99;84.36;52309.50;5042159;28;19925;-78
2023/05/02 05:31:08;;;;;;;;;;;;;;;-144.99;84.04;52295.22;5032858;28;20385;-76
2023/05/02 05:33:34;;;;;;;;;;;;;;;-144.99;83.43;52313.56;5041673;28;19929;-76
2023/05/02 05:36:07;;;;;;;;;;;;;;;-144.99;82.96;52293.19;5035791;28;19925;-77
2023/05/02 05:38:33;;;;;;;;;;;;;;;-144.99;82.52;52323.75;5044313;28;20396;-76
2023/05/02 05:41:01;;;;;;;;;;;;;;;-144.99;82.29;52301.34;5044876;28;19952;-75
2023/05/02 05:43:28;;;;;;;;;;;;;;;-144.99;82.05;52354.34;5048933;28;20524;-75
2023/05/02 05:45:55;;;;;;;;;;;;;;;-144.99;81.53;52313.56;5035838;28;20047;-75
2023/05/02 05:48:21;;;;;;;;;;;;;;;-144.99;81.75;52289.13;5036693;28;20011;-76
2023/05/02 05:50:48;;;;;;;;;;;;;;;-144.99;81.28;52321.72;5036873;28;19935;-74
2023/05/02 05:53:15;;;;;;;;;;;;;;;-144.99;81.70;52272.81;5037560;28;19987;-75
2023/05/02 05:55:41;;;;;;;;;;;;;;;-144.99;80.55;52301.34;5041378;28;19972;-74
2023/05/02 05:58:09;;;;;;;;;;;;;;;-144.99;80.87;52323.75;5034854;28;19955;-74
2023/05/02 06:00:36;;;;;;;;;;;;;;;-144.99;82.11;52329.88;5039271;28;20311;-75
2023/05/02 06:03:03;;;;;;;;;;;;;;;-144.99;80.55;52280.97;5038145;28;20178;-74
2023/05/02 06:05:30;;;;;;;;;;;;;;;-144.99;81.45;52283.00;5033390;28;20431;-74
2023/05/02 06:07:56;;;;;;;;;;;;;;;-144.99;79.55;52313.56;5032250;28;19925;-74
2023/05/02 06:10:22;;;;;;;;;;;;;;;-144.99;80.20;52325.81;5032245;28;19957;-74
2023/05/02 06:12:49;;;;;;;;;;;;;;;-144.99;78.59;52285.03;5036255;28;19925;-73
2023/05/02 06:15:17;;;;;;;;;;;;;;;-144.99;78.57;52285.03;5034153;28;20424;-75
2023/05/02 06:17:44;;;;;;;;;;;;;;;-144.99;79.03;52305.41;5032761;28;19964;-74
2023/05/02 06:20:10;;;;;;;;;;;;;;;-144.99;77.46;52297.25;5031753;28;19971;-74
2023/05/02 06:22:38;;;;;;;;;;;;;;;-144.99;78.23;52299.31;5030324;28;20346;-75
2023/05/02 06:25:05;;;;;;;;;;;;;;;-144.99;78.11;52287.06;5031047;28;19944;-73
2023/05/02 06:27:31;;;;;;;;;;;;;;;-144.99;79.28;52280.97;5038826;28;19965;-75
2023/05/02 06:29:58;;;;;;;;;;;;;;;-144.99;76.95;52303.38;5032479;28;19961;-74
2023/05/02 06:32:29;;;;;;;;;;;;;;;-144.99;76.36;52307.47;5027753;28;20007;-74
2023/05/02 06:34:56;;;;;;;;;;;;;;;-144.99;77.34;52307.47;5029803;28;20479;-75
2023/05/02 06:37:22;;;;;;;;;;;;;;;-144.99;78.14;52285.03;5033966;28;20407;-74
2023/05/02 06:39:49;;;;;;;;;;;;;;;-144.99;75.56;52301.34;5032716;28;20020;-75
2023/05/02 06:42:15;;;;;;;;;;;;;;;-144.99;77.00;52301.34;5030314;28;20376;-74
2023/05/02 06:44:42;;;;;;;;;;;;;;;-144.99;76.79;52305.41;5031851;28;20435;-76
2023/05/02 06:47:08;;;;;;;;;;;;;;;-144.99;76.01;52293.19;5040857;28;20583;-75
2023/05/02 06:49:36;;;;;;;;;;;;;;;-144.99;76.24;52305.41;5036134;28;19929;-76
2023/05/02 06:52:03;;;;;;;;;;;;;;;-144.99;74.88;52333.94;5036315;28;20411;-75
2023/05/02 06:54:29;;;;;;;;;;;;;;;-144.99;74.66;52305.41;5028888;28;19936;-74
2023/05/02 06:56:55;;;;;;;;;;;;;;;-144.99;75.23;52333.94;5031697;28;19972;-74
2023/05/02 06:59:22;;;;;;;;;;;;;;;-144.99;74.68;52305.41;5029492;28;20384;-73
2023/05/02 07:01:49;;;;;;;;;;;;;;;-144.99;73.78;52309.50;5039336;28;19925;-72
2023/05/02 07:04:15;;;;;;;;;;;;;;;-144.99;73.36;52260.56;5038774;28;19971;-75
2023/05/02 07:06:43;;;;;;;;;;;;;;;-144.99;73.80;52305.41;5030927;28;19933;-74
2023/05/02 07:09:09;;;;;;;;;;;;;;;-144.99;73.52;52293.19;5034743;28;19953;-75
2023/05/02 07:11:36;;;;;;;;;;;;;;;-144.99;73.36;52297.25;5043528;28;19964;-75
2023/05/02 07:14:02;;;;;;;;;;;;;;;-144.99;74.00;52272.81;5039631;28;20010;-74
2023/05/02 07:16:29;;;;;;;;;;;;;;;-144.99;74.14;52333.94;5030444;28;19991;-75
2023/05/02 07:18:55;;;;;;;;;;;;;;;-144.99;73.02;52309.50;5034947;28;19941;-72
2023/05/02 07:21:22;;;;;;;;;;;;;;;-144.99;73.46;52315.59;5032763;28;19991;-75
2023/05/02 07:23:50;;;;;;;;;;;;;;;-144.99;72.95;52344.16;5040366;28;19950;-76
2023/05/02 07:26:17;;;;;;;;;;;;;;;-144.99;72.99;52321.72;5029421;28;20425;-75
2023/05/02 07:28:44;;;;;;;;;;;;;;;-144.99;73.06;52299.31;5030658;28;19925;-76
2023/05/02 07:31:10;;;;;;;;;;;;;;;-144.99;73.12;52329.88;5034868;28;19925;-76
2023/05/02 07:33:37;;;;;;;;;;;;;;;-144.99;73.39;52280.97;5036920;28;19925;-74
2023/05/02 07:36:03;;;;;;;;;;;;;;;-144.99;73.16;52301.34;5042518;28;20051;-74
2023/05/02 07:38:30;;;;;;;;;;;;;;;-144.99;72.86;52293.19;5037597;28;19972;-75
2023/05/02 07:40:59;;;;;;;;;;;;;;;-144.99;72.50;52315.59;5038732;28;19939;-74
2023/05/02 07:43:25;;;;;;;;;;;;;;;-144.99;72.34;52305.41;5042158;28;19971;-74
2023/05/02 07:45:52;;;;;;;;;;;;;;;-144.99;72.60;52309.50;5036034;28;19972;-74
2023/05/02 07:48:19;;;;;;;;;;;;;;;-144.99;72.05;52297.25;5034797;28;20294;-76
2023/05/02 07:50:45;;;;;;;;;;;;;;;-144.99;71.91;52293.19;5036405;28;19929;-73
2023/05/02 07:53:12;;;;;;;;;;;;;;;-144.99;72.13;52321.72;5036574;28;19978;-74
2023/05/02 07:55:38;;;;;;;;;;;;;;;-144.99;72.39;52305.41;5053204;28;19924;-74
2023/05/02 07:58:06;;;;;;;;;;;;;;;-144.99;73.04;52307.47;5030616;28;19971;-75
2023/05/02 08:00:32;;;;;;;;;;;;;;;-144.99;72.22;52295.22;5029850;28;19964;-73
2023/05/02 08:02:59;;;;;;;;;;;;;;;-144.99;72.53;52301.34;5034576;28;19928;-76
2023/05/02 08:05:25;;;;;;;;;;;;;;;-144.99;71.58;52301.34;5041087;28;20368;-75
2023/05/02 08:07:52;;;;;;;;;;;;;;;-144.99;74.20;52317.66;5039086;28;19968;-75
2023/05/02 08:10:18;;;;;;;;;;;;;;;-144.99;72.83;52303.38;5030406;28;19925;-75
2023/05/02 08:12:45;;;;;;;;;;;;;;;-144.99;72.84;52260.56;5040673;28;20016;-74
2023/05/02 08:15:13;;;;;;;;;;;;;;;-144.99;71.72;52289.13;5037093;28;19953;-75
2023/05/02 08:17:39;;;;;;;;;;;;;;;-144.99;72.95;52285.03;5033170;28;20025;-76
2023/05/02 08:20:07;;;;;;;;;;;;;;;-144.99;71.83;52280.97;5035688;28;20437;-76
2023/05/02 08:22:33;;;;;;;;;;;;;;;-144.99;70.88;52309.50;5032214;28;19925;-75
2023/05/02 08:24:59;;;;;;;;;;;;;;;-144.99;70.81;52280.97;5042555;28;19960;-76
2023/05/02 08:27:26;;;;;;;;;;;;;;;-144.99;70.76;52246.31;5034763;28;19972;-77
2023/05/02 08:29:52;;;;;;;;;;;;;;;-144.99;71.28;52252.44;5047480;28;19925;-77
2023/05/02 08:32:21;;;;;;;;;;;;;;;-144.99;69.59;52252.44;5035686;28;20415;-76
2023/05/02 08:34:47;;;;;;;;;;;;;;;-144.99;69.02;52285.03;5033858;28;20388;-77
2023/05/02 08:37:14;;;;;;;;;;;;;;;-144.99;68.95;52264.66;5042312;28;20356;-75
2023/05/02 08:39:40;;;;;;;;;;;;;;;-144.99;69.18;52238.16;5038961;28;19980;-75
2023/05/02 08:42:07;;;;;;;;;;;;;;;-144.99;71.49;52227.97;5036052;28;19957;-74
2023/05/02 08:44:33;;;;;;;;;;;;;;;-144.99;70.30;52240.19;5033764;28;19929;-78
2023/05/02 08:47:00;;;;;;;;;;;;;;;-144.99;68.26;52272.81;5027861;28;19975;-77
2023/05/02 08:49:29;;;;;;;;;;;;;;;-144.99;68.54;52276.88;5031475;28;19925;-74
2023/05/02 08:51:56;;;;;;;;;;;;;;;-144.99;68.43;52278.91;5041536;28;19987;-75
2023/05/02 08:54:24;;;;;;;;;;;;;;;-144.99;69.59;52268.72;5032569;28;20376;-76
2023/05/02 08:56:51;;;;;;;;;;;;;;;-144.99;70.44;52252.44;5031436;28;20368;-77
2023/05/02 08:59:18;;;;;;;;;;;;;;;-144.99;70.59;52227.97;5036297;28;20443;-76
2023/05/02 09:01:46;;;;;;;;;;;;;;;-144.99;71.51;52264.66;5038987;28;20299;-75
2023/05/02 09:04:13;;;;;;;;;;;;;;;-144.99;71.28;52280.97;5036675;28;20408;-76
2023/05/02 09:06:41;;;;;;;;;;;;;;;-144.99;70.76;52260.56;5044397;28;20458;-76
2023/05/02 09:09:08;;;;;;;;;;;;;;;-144.99;69.95;52301.34;5048368;22;19964;-73
2023/05/02 09:11:34;;;;;;;;;;;;;;;-144.99;69.52;52272.81;5029971;28;20396;-73
2023/05/02 09:14:03;;;;;;;;;;;;;;;-144.99;69.72;52278.91;5034924;28;19982;-73
2023/05/02 09:16:30;;;;;;;;;;;;;;;-144.99;69.21;52232.03;5043093;28;19932;-73
2023/05/02 09:18:57;;;;;;;;;;;;;;;-144.99;69.08;52236.13;5045378;28;19929;-73
2023/05/02 09:21:24;;;;;;;;;;;;;;;-144.99;68.50;52232.03;5057524;28;19917;-76
2023/05/02 09:23:53;;;;;;;;;;;;;;;-144.99;68.98;52268.72;5049566;28;20012;-73
2023/05/02 09:26:20;;;;;;;;;;;;;;;-144.99;69.07;52268.72;5044907;28;19929;-73
2023/05/02 09:28:47;;;;;;;;;;;;;;;-144.99;69.75;52256.50;5044237;28;19964;-72
2023/05/02 09:31:18;;;;;;;;;;;;;;;-144.99;70.33;52305.41;5044624;28;19935;-72
2023/05/02 09:33:45;;;;;;;;;;;;;;;-144.99;71.28;52311.53;5037466;28;19972;-73
2023/05/02 09:36:13;;;;;;;;;;;;;;;-144.99;72.08;52289.13;5040026;28;19929;-72
2023/05/02 09:38:40;;;;;;;;;;;;;;;-144.99;72.89;52317.66;5042397;28;19997;-74
2023/05/02 09:41:08;;;;;;;;;;;;;;;-144.99;72.81;52285.03;5042640;28;19960;-74
2023/05/02 09:43:34;;;;;;;;;;;;;;;-144.99;72.96;52354.34;5043750;28;19925;-75
2023/05/02 09:46:01;;;;;;;;;;;;;;;-144.99;72.72;52307.47;5040729;28;19929;-73
2023/05/02 09:48:28;;;;;;;;;;;;;;;-144.99;71.74;52278.91;5042003;28;19948;-72
2023/05/02 09:50:55;;;;;;;;;;;;;;;-144.99;71.59;52254.47;5039591;28;19982;-72
2023/05/02 09:53:22;;;;;;;;;;;;;;;-144.99;70.44;52240.19;5043022;28;19929;-72
2023/05/02 09:55:48;;;;;;;;;;;;;;;-144.99;69.69;52227.97;5048437;28;19933;-73
2023/05/02 09:58:24;;;;;;;;;;;;;;;-144.99;69.04;52252.44;5050170;28;19925;-74
2023/05/02 10:00:51;;;;;;;;;;;;;;;-144.99;68.17;52285.03;5044658;28;19925;-73
2023/05/02 10:03:18;;;;;;;;;;;;;;;-144.99;69.18;52280.97;5053768;28;19913;-72
2023/05/02 10:05:45;;;;;;;;;;;;;;;-144.99;70.17;52248.34;5051723;28;19929;-74
2023/05/02 10:08:12;;;;;;;;;;;;;;;-144.99;70.12;52252.44;5051724;28;19936;-73
2023/05/02 10:10:39;;;;;;;;;;;;;;;-144.99;70.21;52297.25;5050779;28;19925;-73
2023/05/02 10:13:07;;;;;;;;;;;;;;;-144.99;69.82;52232.03;5056092;28;19924;-73
2023/05/02 10:15:40;;;;;;;;;;;;;;;-144.99;68.95;52211.66;5057328;28;19920;-73
2023/05/02 10:18:09;;;;;;;;;;;;;;;-144.99;68.75;52227.97;5055141;28;19925;-74
2023/05/02 10:20:39;;;;;;;;;;;;;;;-144.99;68.41;52207.59;5057054;28;19992;-73
2023/05/02 10:23:05;;;;;;;;;;;;;;;-144.99;67.83;52213.69;5057175;28;19914;-74
2023/05/02 10:25:33;;;;;;;;;;;;;;;-144.99;68.36;52215.75;5052096;28;19952;-73
2023/05/02 10:27:59;;;;;;;;;;;;;;;-144.99;69.15;52280.97;5046616;28;19959;-73
2023/05/02 10:30:26;;;;;;;;;;;;;;;-144.99;70.10;52285.03;5043967;28;19979;-72
2023/05/02 10:32:54;;;;;;;;;;;;;;;-144.99;70.49;52297.25;5043632;28;20243;-72
2023/05/02 10:35:21;;;;;;;;;;;;;;;-144.99;70.84;52321.72;5041388;28;20407;-72
2023/05/02 10:37:48;;;;;;;;;;;;;;;-144.99;71.03;52305.41;5044185;28;19933;-71
2023/05/02 10:40:15;;;;;;;;;;;;;;;-144.99;71.12;52301.34;5046984;28;19925;-72
2023/05/02 10:42:44;;;;;;;;;;;;;;;-144.99;70.50;52293.19;5052886;28;19926;-73
2023/05/02 10:45:11;;;;;;;;;;;;;;;-144.99;70.01;52276.88;5038366;28;20016;-73
2023/05/02 10:47:38;;;;;;;;;;;;;;;-144.99;69.75;52268.72;5039237;28;19929;-71
2023/05/02 10:50:07;;;;;;;;;;;;;;;-144.99;69.36;52258.53;5032266;28;20419;-72
2023/05/02 10:52:35;;;;;;;;;;;;;;;-144.99;69.24;52232.03;5031365;28;20019;-72
2023/05/02 10:55:14;;;;;;;;;;;;;;;-144.99;68.91;52219.81;5030867;28;20012;-73
2023/05/02 10:57:56;;;;;;;;;;;;;;;-144.99;68.79;52232.03;5028208;28;19978;-74
2023/05/02 11:00:24;;;;;;;;;;;;;;;-144.99;69.14;52219.81;5030755;28;20301;-71
2023/05/02 11:02:50;;;;;;;;;;;;;;;-144.99;69.13;52215.75;5024334;28;20435;-72
2023/05/02 11:05:18;;;;;;;;;;;;;;;-144.99;69.30;52252.44;5031121;28;19925;-72
2023/05/02 11:07:45;;;;;;;;;;;;;;;-144.99;68.99;52187.19;5030587;28;19974;-72
2023/05/02 11:10:25;;;;;;;;;;;;;;;-144.99;68.63;52268.72;5039618;28;19951;-72
2023/05/02 11:12:51;;;;;;;;;;;;;;;-144.99;68.52;52227.97;5037598;28;19936;-71
2023/05/02 11:15:50;;;;;;;;;;;;;;;-144.99;68.16;52280.97;5037170;28;19932;-73
2023/05/02 11:18:16;;;;;;;;;;;;;;;-144.99;67.35;52227.97;5032423;28;19932;-74
2023/05/02 11:20:45;;;;;;;;;;;;;;;-144.99;66.54;52244.28;5055492;28;19935;-73
2023/05/02 11:23:24;;;;;;;;;;;;;;;-144.99;66.09;52227.97;5040695;28;19929;-72
2023/05/02 11:25:50;;;;;;;;;;;;;;;-144.99;65.68;52203.50;5023298;28;20044;-72
2023/05/02 11:28:35;;;;;;;;;;;;;;;-144.99;65.59;52154.59;5029691;28;20003;-72
2023/05/02 11:31:02;;;;;;;;;;;;;;;-144.99;65.08;52244.28;5023869;28;20312;-74
2023/05/02 11:33:29;;;;;;;;;;;;;;;-144.99;65.28;52244.28;5028058;28;19979;-73
2023/05/02 11:42:03;;;;;;;;;;;;;;;-144.99;65.19;52227.97;5025424;28;20027;-75
2023/05/02 11:44:29;;;;;;;;;;;;;;;-144.99;65.19;52276.88;5031665;28;20039;-73
2023/05/02 11:46:56;;;;;;;;;;;;;;;-144.99;65.43;52260.56;5036937;28;19975;-73
2023/05/02 11:49:22;;;;;;;;;;;;;;;-144.99;64.33;52113.84;5035472;28;19925;-72
2023/05/02 11:51:49;;;;;;;;;;;;;;;-144.99;63.62;52230.00;5033264;28;19971;-73
2023/05/02 11:54:18;;;;;;;;;;;;;;;-144.99;62.97;52236.13;5028229;28;20410;-74
2023/05/02 11:56:45;;;;;;;;;;;;;;;-144.99;63.33;52250.38;5027506;28;19971;-73
2023/05/02 11:59:13;;;;;;;;;;;;;;;-144.99;63.97;52262.63;5028231;28;19939;-73
2023/05/02 12:01:47;;;;;;;;;;;;;;;-144.99;64.64;52260.56;5022541;28;21288;-73
2023/05/02 12:04:13;;;;;;;;;;;;;;;-144.99;66.01;52256.50;5027711;28;20356;-73
2023/05/02 12:06:54;;;;;;;;;;;;;;;-144.99;66.34;52262.63;5028654;28;19933;-72
2023/05/02 12:09:21;;;;;;;;;;;;;;;-144.99;66.56;52252.44;5027595;28;20473;-71
2023/05/02 12:11:51;;;;;;;;;;;;;;;-144.99;66.71;52256.50;5029709;28;19929;-71
2023/05/02 12:14:26;;;;;;;;;;;;;;;-144.99;66.41;52248.34;5033406;28;19935;-72
2023/05/02 12:16:53;;;;;;;;;;;;;;;-144.99;66.46;52276.88;5028199;28;19933;-70
2023/05/02 12:19:20;;;;;;;;;;;;;;;-144.99;66.18;52280.97;5029283;28;19972;-71
2023/05/02 12:21:47;;;;;;;;;;;;;;;-144.99;66.00;52260.56;5027487;28;19926;-72
2023/05/02 12:24:14;;;;;;;;;;;;;;;-144.99;66.70;52280.97;5033546;28;19926;-72
2023/05/02 12:26:40;;;;;;;;;;;;;;;-144.99;66.43;52256.50;5030106;28;19933;-73
2023/05/02 12:29:07;;;;;;;;;;;;;;;-144.99;67.00;52285.03;5024195;28;19971;-73
2023/05/02 12:31:35;;;;;;;;;;;;;;;-144.99;67.19;52264.66;5027675;28;19937;-72
2023/05/02 12:34:01;;;;;;;;;;;;;;;-144.99;67.46;52285.03;5029221;28;20304;-73